Flight Track Log - Related Links

Times and Time Zones

All times are in EDT time to prevent confusion due to time zone crossing. See the N4920G flight status page for this flight to view local times or setup timezone preferences in your user account.

Time Position Orientation Groundspeed Altitude Reporting Facility
EDT Latitude Longitude Course Direction KTS MPH feet Rate Location/Type
Mon 01:46:14 PM 41.7564 -86.3200 350° North 69 79 2,800  Level Chicago Center
Mon 01:47:16 PM 41.7792 -86.3083 21° North 75 86 2,900 48 Climbing Chicago Center
Mon 01:48:18 PM 41.8064 -86.2950 20° North 87 100 2,900 -48 Level Chicago Center
Mon 01:49:20 PM 41.8325 -86.2822 20° North 95 109 2,800 48 Descending Chicago Center
Mon 01:50:00 PM 41.7082 -86.3173 348° North  Level Estimated
Mon 01:50:22 PM 41.8650 -86.2686 17° North 99 114 3,000  Level Chicago Center
Mon 01:51:00 PM 41.7082 -86.3173 350° North  Level Estimated
Mon 01:51:24 PM 41.8933 -86.2586 15° North 102 117 2,900  Level Chicago Center
Mon 01:52:26 PM 41.9192 -86.2461 20° North 101 116 2,900  Level Chicago Center
Mon 01:53:28 PM 41.9461 -86.2372 14° North 100 115 2,900  Level Chicago Center
Mon 01:54:30 PM 41.9722 -86.2253 19° North 100 115 2,900  Level Chicago Center
Mon 01:55:32 PM 41.9997 -86.2136 17° North 102 117 2,900  Level Chicago Center
Mon 01:56:34 PM 42.0353 -86.1961 20° North 110 127 2,900  Level Chicago Center
Mon 01:57:36 PM 42.0644 -86.1828 19° North 111 128 2,900  Level Chicago Center
Mon 01:58:38 PM 42.0917 -86.1714 17° North 105 121 2,900 -48 Level Chicago Center
Mon 01:59:40 PM 42.1189 -86.1775 351° North 108 124 2,800 48 Descending Chicago Center
Mon 02:00:42 PM 42.1289 -86.2094 293° West 96 110 3,000 48 Climbing Chicago Center
Mon 02:01:44 PM 42.1306 -86.2450 274° West 94 108 2,900 -194 Descending Chicago Center
Mon 02:02:46 PM 42.1286 -86.2781 265° West 90 104 2,600 -435 Descending Chicago Center
Mon 02:03:48 PM 42.1256 -86.3200 264° West 92 106 2,000 -339 Descending Chicago Center
Mon 02:04:50 PM 42.1233 -86.3536 265° West 92 106 1,900 78 Descending Chicago Center
Mon 02:06:00 PM 42.0871 -86.3504 176° South  Level Estimated
Mon 02:10:12 PM 42.1325 -86.4222 176° South 71 82 2,500  Level Chicago Center
Mon 02:11:14 PM 42.1275 -86.3931 103° East 79 91 3,000 195 Climbing Chicago Center
Mon 02:12:15 PM 42.1181 -86.3589 110° East 91 105 2,900 -49 Descending Chicago Center
Mon 02:13:00 PM 41.8699 -86.3314 176° South  Level Estimated
Mon 02:13:17 PM 42.1114 -86.3203 103° East 102 117 2,900  Level Chicago Center
Mon 02:14:00 PM 41.8389 -86.3287 176° South  Level Estimated
Mon 02:14:19 PM 42.1053 -86.2867 104° East 97 112 2,900  Level Chicago Center
Mon 02:15:00 PM 41.8078 -86.3260 176° South  Level Estimated
Mon 02:15:21 PM 42.1036 -86.2531 94° East 92 106 2,900  Level Chicago Center
Mon 02:16:23 PM 42.1094 -86.2097 80° East 96 110 2,900  Level Chicago Center
Mon 02:17:25 PM 42.1128 -86.1706 83° East 102 117 2,900  Level Chicago Center
Mon 02:18:27 PM 42.1058 -86.1336 104° East 114 131 2,900  Level Chicago Center
Mon 02:19:29 PM 42.0769 -86.1261 169° South 108 124 2,900 -194 Level Chicago Center
Mon 02:20:31 PM 42.0508 -86.1289 185° South 97 112 2,500 -585 Descending Chicago Center
Mon 02:21:32 PM 42.0228 -86.1289 180° South 99 114 1,700 -488 Descending Chicago Center
Mon 02:22:34 PM 41.9928 -86.1269 177° South 97 112 1,500 145 Descending Chicago Center
Mon 02:23:36 PM 41.9736 -86.1272 181° South 80 92 2,000 387 Climbing Chicago Center
Mon 02:24:38 PM 41.9633 -86.1458 233° Southwest 93 107 2,300 339 Climbing Chicago Center
Mon 02:25:40 PM 41.9756 -86.1328 38° Northeast 85 98 2,700 339 Climbing Chicago Center
Mon 02:26:42 PM 41.9686 -86.1017 107° East 85 98 3,000 145 Climbing Chicago Center
Mon 02:27:44 PM 41.9625 -86.0642 102° East 97 112 3,000  Level Chicago Center
Mon 02:28:46 PM 41.9528 -86.0294 111° Southeast 99 114 3,000 -48 Level Chicago Center
Mon 02:29:48 PM 41.9450 -85.9842 103° East 102 117 2,900 -48 Descending Chicago Center
Mon 02:30:50 PM 41.9367 -85.9461 106° East 106 122 2,900  Level Chicago Center
Mon 02:31:52 PM 41.9278 -85.9097 108° East 103 119 2,900  Level Chicago Center
Mon 02:32:54 PM 41.9206 -85.8706 104° East 105 121 2,900 96 Level Chicago Center
Mon 02:33:57 PM 41.9183 -85.8325 94° East 104 120 3,100  Climbing Chicago Center
Mon 02:34:59 PM 41.9169 -85.7903 93° East 107 123 2,900 -97 Descending Chicago Center
Mon 02:36:01 PM 41.9175 -85.7425 89° East 108 124 2,900 48 Level Chicago Center
Mon 02:37:03 PM 41.9225 -85.7050 80° East 106 122 3,000 48 Climbing Chicago Center
Mon 02:38:05 PM 41.9272 -85.6669 81° East 103 119 3,000  Level Chicago Center
Mon 02:39:07 PM 41.9289 -85.6289 87° East 103 119 3,000 -48 Level Chicago Center
Mon 02:40:09 PM 41.9297 -85.5906 88° East 102 117 2,900 -48 Descending Chicago Center
Mon 02:41:11 PM 41.9322 -85.5517 85° East 103 119 2,900 48 Level Chicago Center
Mon 02:42:13 PM 41.9531 -85.5197 49° Northeast 108 124 3,000 48 Climbing Chicago Center
Mon 02:43:15 PM 41.9781 -85.4975 33° Northeast 108 124 3,000 -48 Level Chicago Center
Mon 02:44:17 PM 42.0050 -85.4992 357° North 105 121 2,900 -144 Descending Chicago Center
Mon 02:45:20 PM 42.0269 -85.5111 338° Northwest 95 109 2,700 -48 Descending Chicago Center
Mon 02:46:22 PM 42.0517 -85.5114 360° North 90 104 2,800 97 Climbing Chicago Center
Mon 02:47:24 PM 42.0764 -85.5222 342° North 91 105 2,900  Climbing Chicago Center
Mon 02:48:26 PM 42.1053 -85.5253 356° North 88 101 2,800 -48 Descending Chicago Center
Mon 02:49:28 PM 42.1286 -85.5278 355° North 86 99 2,800 -194 Level Chicago Center
Mon 02:50:30 PM 42.1519 -85.5347 348° North 84 97 2,400 -484 Descending Chicago Center
Mon 02:51:32 PM 42.1742 -85.5389 352° North 83 96 1,800 -435 Descending Chicago Center
Mon 02:52:34 PM 42.1956 -85.5439 350° North 80 92 1,500 -290 Descending Chicago Center
Mon 02:53:36 PM 42.2211 -85.5494 351° North 82 94 1,200 107 Descending Chicago Center
Mon 02:55:00 PM 42.1878 -85.5866 220° Southwest  Level FlightAware Approximate
Mon 02:56:18 PM 42.2578 -85.5189 220° Southwest 111 128 1,900  Level Chicago Center
Mon 02:57:20 PM 42.2672 -85.4975 59° Northeast 68 78 2,400 532 Climbing Chicago Center
Mon 02:58:22 PM 42.2811 -85.4717 54° Northeast 75 86 3,000 242 Climbing Chicago Center
Mon 02:59:24 PM 42.3008 -85.4431 47° Northeast 93 107 2,900 -48 Descending Chicago Center
Mon 03:00:26 PM 42.3183 -85.4147 50° Northeast 99 114 2,900 48 Level Chicago Center
Mon 03:01:28 PM 42.3347 -85.3867 52° Northeast 96 110 3,000  Climbing Chicago Center
Mon 03:02:30 PM 42.3578 -85.3494 50° Northeast 105 121 2,900 -145 Descending Chicago Center
Mon 03:03:32 PM 42.3758 -85.3192 51° Northeast 105 121 2,700 48 Descending Chicago Center
Mon 03:04:34 PM 42.3942 -85.2933 46° Northeast 98 113 3,000 48 Climbing Chicago Center
Mon 03:05:36 PM 42.4114 -85.2586 56° Northeast 106 122 2,800 -48 Descending Chicago Center
Mon 03:06:38 PM 42.4281 -85.2244 57° Northeast 108 124 2,900  Climbing Chicago Center
Mon 03:07:41 PM 42.4450 -85.1900 56° Northeast 111 128 2,800 -48 Descending Chicago Center
Mon 03:08:43 PM 42.4547 -85.1464 73° East 110 127 2,800 48 Level Chicago Center
Mon 03:09:45 PM 42.4331 -85.1253 144° Southeast 99 114 2,900 48 Climbing Chicago Center
Mon 03:10:47 PM 42.4033 -85.1328 191° South 105 121 2,900 -48 Level Chicago Center
Mon 03:11:49 PM 42.3825 -85.1572 221° Southwest 107 123 2,800 -435 Descending Chicago Center
Mon 03:12:51 PM 42.3586 -85.1858 222° Southwest 102 117 2,000 -629 Descending Chicago Center
Mon 03:13:53 PM 42.3406 -85.2139 229° Southwest 100 115 1,500 -288 Descending Chicago Center
Mon 03:14:56 PM 42.3222 -85.2400 226° Southwest 100 115 1,400 134 Descending Chicago Center
Mon 03:16:00 PM 42.3059 -85.2713 235° Southwest  Level FlightAware Approximate
Mon 03:17:37 PM 42.2783 -85.2853 235° Southwest 80 92 2,000  Level Chicago Center
Mon 03:18:39 PM 42.2586 -85.2961 202° Southwest 78 90 2,400 435 Climbing Chicago Center
Mon 03:19:41 PM 42.2342 -85.2911 171° South 84 97 2,900 484 Climbing Chicago Center
Mon 03:20:43 PM 42.2242 -85.3139 239° Southwest 73 84 3,400 484 Climbing Chicago Center
Mon 03:21:45 PM 42.2125 -85.3383 237° Southwest 75 86 3,900 194 Climbing Chicago Center
Mon 03:22:47 PM 42.1953 -85.3692 233° Southwest 93 107 3,800  Descending Chicago Center
Mon 03:23:00 PM 42.1985 -85.4765 235° Southwest  Level FlightAware Approximate
Mon 03:23:49 PM 42.1753 -85.4072 235° Southwest 102 117 3,900  Level Chicago Center
Mon 03:24:52 PM 42.1578 -85.4392 234° Southwest 105 121 3,800 -48 Descending Chicago Center
Mon 03:25:54 PM 42.1403 -85.4744 236° Southwest 111 128 3,800 48 Level Chicago Center
Mon 03:26:56 PM 42.1256 -85.5075 239° Southwest 107 123 3,900 48 Climbing Chicago Center
Mon 03:27:58 PM 42.1092 -85.5408 236° Southwest 106 122 3,900  Level Chicago Center
Mon 03:29:00 PM 42.0931 -85.5739 237° Southwest 106 122 3,900  Level Chicago Center
Mon 03:30:02 PM 42.0733 -85.6158 238° Southwest 109 125 3,900 -48 Level Chicago Center
Mon 03:31:04 PM 42.0550 -85.6528 236° Southwest 116 133 3,800  Descending Chicago Center
Mon 03:32:06 PM 42.0383 -85.6836 234° Southwest 108 124 3,900  Climbing Chicago Center
Mon 03:33:08 PM 42.0197 -85.7172 233° Southwest 110 127 3,800  Descending Chicago Center
Mon 03:34:10 PM 41.9994 -85.7503 230° Southwest 114 131 3,900  Climbing Chicago Center
Mon 03:35:12 PM 41.9772 -85.7906 233° Southwest 113 130 3,800  Descending Chicago Center
Mon 03:36:15 PM 41.9536 -85.8158 219° Southwest 111 128 3,900  Climbing Chicago Center
Mon 03:37:17 PM 41.9256 -85.8356 208° Southwest 113 130 3,800  Descending Chicago Center
Mon 03:38:19 PM 41.9003 -85.8569 212° Southwest 109 125 3,900  Climbing Chicago Center
Mon 03:39:21 PM 41.8750 -85.8800 214° Southwest 109 125 3,800  Descending Chicago Center
Mon 03:40:23 PM 41.8453 -85.9117 218° Southwest 113 130 3,900  Climbing Chicago Center
Mon 03:41:25 PM 41.8192 -85.9367 216° Southwest 115 132 3,800 -48 Descending Chicago Center
Mon 03:42:27 PM 41.7944 -85.9597 215° Southwest 112 129 3,800 48 Level Chicago Center
Mon 03:43:29 PM 41.7697 -85.9861 219° Southwest 111 128 3,900  Climbing Chicago Center
Mon 03:44:31 PM 41.7447 -86.0108 216° Southwest 113 130 3,800 -48 Descending Chicago Center
Mon 03:45:33 PM 41.7217 -86.0339 217° Southwest 109 125 3,800  Level Chicago Center
Mon 03:46:35 PM 41.7058 -86.0742 242° Southwest 109 125 3,800 -194 Level Chicago Center
Mon 03:47:37 PM 41.7067 -86.1106 272° West 103 119 3,400 -480 Descending Chicago Center
Mon 03:48:40 PM 41.7064 -86.1481 269° West 101 116 2,800 -432 Descending Chicago Center
Mon 03:49:42 PM 41.7056 -86.1817 268° West 97 112 2,500 -484 Descending Chicago Center
Mon 03:50:44 PM 41.7042 -86.2161 267° West 94 108 1,800 -532 Descending Chicago Center
Mon 03:51:46 PM 41.7042 -86.2525 270° West 88 101 1,400 -242 Descending Chicago Center
Mon 03:52:48 PM 41.7036 -86.2808 269° West 85 98 1,300 -97 Descending Chicago Center
Mon 03:54:00 PM 41.7000 -86.3167 252° West  Level FlightAware Approximate
Mon 04:01:00 PM 41.7082 -86.3173 252° West  Level Estimated
Mon 04:02:00 PM 41.7082 -86.3173 252° West  Level Estimated

Login

Don't have an account? Register now (free) for customized features, flight alerts, and more!